Time;durP1;ratioP1;P1;durP2;ratioP2;P2;SDS_P1;SDS_P2;PMS_P1;PMS_P2;Temp;Humidity;BMP_temperature;BMP_pressure;BME280_temperature;BME280_humidity;BME280_pressure;Samples;Min_cycle;Max_cycle;Signal;HPM_P1;HPM_P2
2022/02/23 00:01:04;;;;;;;6.50;2.55;;;;;;;9.42;46.13;100504.00;5043515;28;20025;-79
2022/02/23 00:03:33;;;;;;;5.53;3.75;;;;;;;9.39;46.58;100483.28;5028734;28;20029;-79
2022/02/23 00:05:58;;;;;;;7.65;2.75;;;;;;;9.35;46.65;100484.31;5027096;28;20053;-80
2022/02/23 00:08:24;;;;;;;11.80;3.20;;;;;;;9.30;45.22;100504.00;5028403;28;20033;-79
2022/02/23 00:10:56;;;;;;;10.40;3.60;;;;;;;9.33;45.84;100493.00;5031035;28;20040;-79
2022/02/23 00:13:27;;;;;;;4.28;2.42;;;;;;;9.27;46.25;100488.84;5029772;28;20029;-80
2022/02/23 00:15:57;;;;;;;9.85;2.95;;;;;;;9.23;45.74;100490.69;5046719;28;20038;-80
2022/02/23 00:18:28;;;;;;;8.63;3.08;;;;;;;9.11;45.68;100483.16;5028608;28;20531;-80
2022/02/23 00:20:53;;;;;;;4.22;1.35;;;;;;;9.25;44.69;100499.47;5029320;28;20036;-79
2022/02/23 00:23:19;;;;;;;8.38;3.88;;;;;;;9.29;44.30;100472.63;5031171;28;20029;-81
2022/02/23 00:25:45;;;;;;;9.75;3.45;;;;;;;9.18;44.83;100477.03;5027841;28;20034;-79
2022/02/23 00:28:13;;;;;;;9.82;4.55;;;;;;;9.23;44.10;100498.22;5028839;28;20029;-78
2022/02/23 00:30:41;;;;;;;7.25;5.05;;;;;;;9.25;42.91;100474.47;5029313;28;20194;-80
2022/02/23 00:33:12;;;;;;;5.43;2.10;;;;;;;9.33;43.08;100490.22;5030139;28;20061;-81
2022/02/23 00:35:40;;;;;;;2.88;1.70;;;;;;;9.31;43.77;100498.09;5027083;28;20061;-80
2022/02/23 00:38:09;;;;;;;8.23;1.92;;;;;;;9.26;44.42;100497.50;5030049;28;20029;-80
2022/02/23 00:40:37;;;;;;;5.75;1.58;;;;;;;9.24;43.61;100494.28;5028238;28;20033;-80
2022/02/23 00:43:06;;;;;;;4.93;1.90;;;;;;;9.27;42.65;100486.06;5030090;28;20140;-79
2022/02/23 00:45:34;;;;;;;8.02;1.98;;;;;;;9.20;43.10;100502.47;5041373;28;20480;-80
2022/02/23 00:48:03;;;;;;;7.88;3.72;;;;;;;9.17;44.51;100487.34;5049018;28;20090;-80
2022/02/23 00:50:31;;;;;;;6.60;2.88;;;;;;;9.08;44.77;100485.81;5053394;28;20123;-83
2022/02/23 00:53:01;;;;;;;8.75;2.67;;;;;;;9.08;43.33;100483.03;5055912;28;20040;-81
2022/02/23 00:55:29;;;;;;;5.80;3.25;;;;;;;9.02;44.33;100467.78;5054549;28;20028;-81
2022/02/23 00:58:00;;;;;;;3.72;1.90;;;;;;;9.02;44.12;100479.69;5049687;28;20025;-79
2022/02/23 01:00:28;;;;;;;3.88;2.17;;;;;;;9.07;43.76;100487.78;5049808;28;20040;-79
2022/02/23 01:02:55;;;;;;;3.60;2.97;;;;;;;9.06;44.14;100479.81;5049542;28;20032;-80
2022/02/23 01:05:23;;;;;;;5.72;2.47;;;;;;;9.03;44.79;100489.63;5067404;28;20024;-80
2022/02/23 01:07:49;;;;;;;5.75;1.52;;;;;;;9.02;44.88;100492.75;5050140;28;20041;-80
2022/02/23 01:10:14;;;;;;;1.92;1.30;;;;;;;9.10;44.45;100486.28;5048763;28;20033;-79
2022/02/23 01:12:40;;;;;;;10.13;3.85;;;;;;;9.03;45.33;100497.94;5046685;28;20060;-81
2022/02/23 01:15:08;;;;;;;2.35;1.80;;;;;;;8.99;45.13;100496.22;5046043;28;20082;-80
2022/02/23 01:17:38;;;;;;;7.85;1.45;;;;;;;9.01;45.08;100483.63;5048295;28;20025;-79
2022/02/23 01:20:05;;;;;;;14.35;2.08;;;;;;;9.08;45.67;100516.34;5065460;28;20464;-79
2022/02/23 01:22:33;;;;;;;4.18;1.75;;;;;;;9.07;44.92;100520.28;5048854;28;20029;-80
2022/02/23 01:24:58;;;;;;;11.10;2.45;;;;;;;9.08;45.19;100516.34;5048666;28;20063;-79
2022/02/23 01:27:24;;;;;;;11.50;2.47;;;;;;;9.06;46.20;100518.69;5048856;28;20029;-79
2022/02/23 01:29:49;;;;;;;5.72;2.72;;;;;;;9.02;45.77;100517.72;5048663;28;20067;-80
2022/02/23 01:32:18;;;;;;;5.20;2.22;;;;;;;9.00;45.63;100509.75;5047433;28;20028;-80
2022/02/23 01:34:43;;;;;;;9.07;2.28;;;;;;;9.05;45.52;100528.13;5046750;28;20031;-80
2022/02/23 01:37:13;;;;;;;11.30;3.35;;;;;;;8.98;45.87;100509.28;5049229;28;20025;-79
2022/02/23 01:39:44;;;;;;;6.68;1.83;;;;;;;8.98;46.07;100519.56;5052831;28;20040;-80
2022/02/23 01:42:11;;;;;;;4.20;1.67;;;;;;;9.02;45.97;100513.00;5050556;28;20036;-80
2022/02/23 01:44:39;;;;;;;5.68;2.58;;;;;;;9.01;45.83;100499.47;5048093;28;20044;-80
2022/02/23 01:47:08;;;;;;;12.90;4.65;;;;;;;8.90;46.06;100508.22;5049293;28;20120;-81
2022/02/23 01:49:34;;;;;;;4.82;3.38;;;;;;;8.92;46.47;100513.44;5052145;28;20032;-80
2022/02/23 01:52:00;;;;;;;7.50;3.00;;;;;;;8.92;46.08;100508.69;5047624;28;20019;-81
2022/02/23 01:54:26;;;;;;;4.65;2.80;;;;;;;8.87;46.59;100510.88;5049324;28;20044;-80
2022/02/23 01:56:52;;;;;;;14.57;4.63;;;;;;;8.90;46.51;100511.00;5054380;28;20013;-80
2022/02/23 01:59:17;;;;;;;5.75;2.50;;;;;;;8.94;46.58;100527.75;5059188;28;20049;-79
2022/02/23 02:01:43;;;;;;;4.38;2.55;;;;;;;8.95;46.26;100511.91;5076018;28;20108;-80
2022/02/23 02:04:11;;;;;;;3.20;1.85;;;;;;;8.83;46.19;100510.75;5060332;28;20017;-80
2022/02/23 02:06:39;;;;;;;8.65;2.70;;;;;;;8.87;46.43;100516.44;5058039;28;20037;-79
2022/02/23 02:09:04;;;;;;;16.73;4.80;;;;;;;8.93;46.24;100523.38;5050156;28;20051;-80
2022/02/23 02:11:32;;;;;;;32.22;12.38;;;;;;;9.01;45.60;100528.03;5049190;28;20025;-79
2022/02/23 02:14:03;;;;;;;21.48;9.52;;;;;;;8.98;45.69;100516.78;5047753;28;20025;-79
2022/02/23 02:16:31;;;;;;;5.82;3.28;;;;;;;8.97;45.93;100515.19;5046666;28;20033;-80
2022/02/23 02:19:03;;;;;;;7.78;2.10;;;;;;;8.96;45.60;100527.44;5047987;28;20027;-80
2022/02/23 02:21:57;;;;;;;2.60;1.60;;;;;;;8.79;45.88;100504.28;5067092;28;20111;-79
2022/02/23 02:24:24;;;;;;;11.32;3.72;;;;;;;8.83;45.79;100527.38;5034464;28;20033;-80
2022/02/23 02:26:55;;;;;;;9.15;4.28;;;;;;;8.87;45.44;100517.22;5067200;28;20033;-80
2022/02/23 02:29:24;;;;;;;4.00;2.30;;;;;;;8.91;44.75;100528.47;5050547;28;20025;-81
2022/02/23 02:31:55;;;;;;;5.35;2.25;;;;;;;8.95;44.05;100523.84;5048468;28;20120;-80
2022/02/23 02:34:21;;;;;;;2.80;1.70;;;;;;;8.97;43.52;100520.72;5050045;28;20032;-80
2022/02/23 02:36:49;;;;;;;5.68;1.65;;;;;;;8.77;43.60;100489.13;5047880;28;20029;-80
2022/02/23 02:39:19;;;;;;;8.52;1.63;;;;;;;8.92;43.70;100530.06;5063302;28;20025;-79
2022/02/23 02:41:47;;;;;;;4.93;1.80;;;;;;;8.89;44.36;100520.50;5047280;28;20029;-80
2022/02/23 02:44:17;;;;;;;4.00;1.30;;;;;;;8.98;42.78;100527.91;5043983;28;20049;-79
2022/02/23 02:46:45;;;;;;;2.13;1.35;;;;;;;8.98;42.55;100514.00;5044462;28;20089;-79
2022/02/23 02:49:13;;;;;;;5.40;1.80;;;;;;;9.00;42.51;100517.25;5029937;28;20107;-80
2022/02/23 02:51:42;;;;;;;1.63;1.27;;;;;;;8.97;42.45;100520.72;5027905;28;20116;-80
2022/02/23 02:54:10;;;;;;;5.55;1.10;;;;;;;8.97;42.63;100523.50;5044588;28;20029;-80
2022/02/23 02:56:43;;;;;;;5.60;1.30;;;;;;;9.01;42.82;100530.00;5023854;28;20045;-80
2022/02/23 02:59:08;;;;;;;6.25;1.15;;;;;;;9.03;41.75;100522.94;5023907;28;20034;-80
2022/02/23 03:01:35;;;;;;;7.28;1.58;;;;;;;9.12;40.74;100529.19;5027804;28;20036;-80
2022/02/23 03:04:01;;;;;;;12.85;1.40;;;;;;;9.16;40.89;100529.31;5046760;28;20544;-81
2022/02/23 03:06:32;;;;;;;3.63;1.17;;;;;;;9.20;39.64;100524.69;5029557;28;20093;-80
2022/02/23 03:11:47;;;;;;;3.30;1.05;;;;;;;9.21;39.79;100526.31;5050015;28;20044;-81
2022/02/23 03:14:13;;;;;;;5.68;1.90;;;;;;;9.13;40.47;100530.81;5034978;28;20033;-80
2022/02/23 03:16:38;;;;;;;3.22;1.38;;;;;;;9.13;40.37;100516.13;5039018;28;20059;-80
2022/02/23 03:19:04;;;;;;;3.30;2.13;;;;;;;9.23;40.07;100529.56;5037021;28;20064;-79
2022/02/23 03:21:34;;;;;;;6.53;1.10;;;;;;;9.23;40.22;100524.00;5034129;28;20028;-80
2022/02/23 03:24:00;;;;;;;3.88;1.85;;;;;;;9.24;41.04;100524.81;5032154;28;20042;-79
2022/02/23 03:26:30;;;;;;;2.70;1.60;;;;;;;9.15;41.34;100538.78;5029541;28;20068;-79
2022/02/23 03:28:58;;;;;;;4.25;1.60;;;;;;;9.07;41.05;100529.41;5031155;28;20033;-79
2022/02/23 03:31:26;;;;;;;4.20;1.20;;;;;;;9.10;41.53;100539.81;5032715;28;20069;-80
2022/02/23 03:33:54;;;;;;;2.40;1.02;;;;;;;9.02;41.66;100534.38;5035006;28;20033;-80
2022/02/23 03:36:27;;;;;;;8.35;1.27;;;;;;;9.06;41.45;100557.53;5035218;28;20085;-82
2022/02/23 03:38:52;;;;;;;3.22;0.90;;;;;;;9.07;41.27;100537.75;5035640;28;20049;-81
2022/02/23 03:41:18;;;;;;;3.53;1.40;;;;;;;9.10;40.99;100558.44;5034019;28;20037;-80
2022/02/23 03:43:47;;;;;;;2.85;1.25;;;;;;;9.09;40.84;100537.41;5035659;28;20030;-80
2022/02/23 03:46:14;;;;;;;3.50;2.00;;;;;;;9.14;40.12;100546.31;5054807;28;20008;-81
2022/02/23 03:48:43;;;;;;;18.80;7.40;;;;;;;9.18;39.26;100532.56;5051011;28;20032;-80
2022/02/23 03:51:14;;;;;;;9.00;2.85;;;;;;;9.16;39.30;100534.84;5050150;28;20025;-80
2022/02/23 03:53:41;;;;;;;5.07;1.30;;;;;;;9.18;39.64;100532.56;5051730;28;20067;-80
2022/02/23 03:56:38;;;;;;;0.95;0.85;;;;;;;9.22;39.59;100544.59;5052552;28;20036;-80
2022/02/23 03:58:58;;;;;;;3.47;1.83;;;;;;;9.17;39.38;100547.59;5066608;28;20116;-80
2022/02/23 04:01:26;;;;;;;3.63;1.40;;;;;;;9.20;39.37;100549.69;5048734;28;20067;-79
2022/02/23 04:03:56;;;;;;;3.45;1.60;;;;;;;9.16;40.03;100551.50;5046383;28;20426;-80
2022/02/23 04:06:27;;;;;;;1.15;0.77;;;;;;;9.23;38.56;100551.78;5049679;28;20387;-79
2022/02/23 04:08:56;;;;;;;1.70;1.00;;;;;;;9.20;39.30;100558.00;5046885;28;20029;-79
2022/02/23 04:11:21;;;;;;;1.58;1.08;;;;;;;9.21;39.35;100573.50;5066707;28;20052;-80
2022/02/23 04:13:49;;;;;;;3.75;1.48;;;;;;;9.10;39.83;100561.22;5046476;28;20032;-79
2022/02/23 04:16:18;;;;;;;2.15;1.98;;;;;;;9.10;39.38;100564.00;5047774;28;20021;-80
2022/02/23 04:18:44;;;;;;;1.27;1.02;;;;;;;9.19;38.09;100557.19;5049532;28;20036;-79
2022/02/23 04:21:13;;;;;;;1.73;0.98;;;;;;;9.16;38.67;100570.94;5050239;28;20028;-80
2022/02/23 04:23:38;;;;;;;2.38;1.08;;;;;;;9.19;38.32;100578.59;5050263;28;20423;-80
2022/02/23 04:26:05;;;;;;;1.30;0.98;;;;;;;9.19;39.00;100600.81;5049616;28;20088;-79
2022/02/23 04:28:34;;;;;;;3.90;1.65;;;;;;;9.13;38.71;100578.00;5049710;28;20052;-80
2022/02/23 04:31:03;;;;;;;1.65;0.90;;;;;;;9.11;38.96;100577.56;5069490;28;20074;-80
2022/02/23 04:33:28;;;;;;;1.00;0.88;;;;;;;9.11;38.38;100568.41;5068981;28;20029;-79
2022/02/23 04:35:57;;;;;;;2.90;0.90;;;;;;;9.23;37.88;100571.22;5052220;28;20021;-78
2022/02/23 04:38:23;;;;;;;1.95;1.00;;;;;;;9.32;38.17;100582.19;5048538;28;20460;-79
2022/02/23 04:40:51;;;;;;;6.18;1.25;;;;;;;9.23;38.47;100592.63;5051048;28;20026;-80
2022/02/23 04:43:19;;;;;;;1.33;0.90;;;;;;;9.22;38.32;100568.78;5049219;28;20029;-78
2022/02/23 04:45:47;;;;;;;2.70;1.13;;;;;;;9.27;37.75;100555.50;5052366;28;20538;-80
2022/02/23 04:48:15;;;;;;;1.10;0.80;;;;;;;9.29;37.84;100560.69;5049256;28;20511;-80
2022/02/23 04:50:43;;;;;;;1.23;0.98;;;;;;;9.32;38.21;100566.38;5050500;28;20032;-79
2022/02/23 04:53:08;;;;;;;1.67;0.82;;;;;;;9.29;38.42;100563.47;5049511;28;20044;-80
2022/02/23 04:55:35;;;;;;;1.58;0.90;;;;;;;9.29;38.01;100594.81;5051162;28;20459;-80
2022/02/23 04:58:07;;;;;;;2.22;0.95;;;;;;;9.37;38.02;100580.00;5068668;28;20028;-79
2022/02/23 05:00:42;;;;;;;2.35;1.13;;;;;;;9.35;37.97;100565.66;5049866;28;20039;-80
2022/02/23 05:03:13;;;;;;;2.95;1.13;;;;;;;9.31;38.17;100561.13;5051887;28;20028;-80
2022/02/23 05:05:38;;;;;;;2.85;1.00;;;;;;;9.33;38.75;100579.09;5056813;28;20035;-79
2022/02/23 05:08:07;;;;;;;4.00;1.40;;;;;;;9.29;38.88;100594.00;5059270;28;20029;-80
2022/02/23 05:10:33;;;;;;;3.38;1.65;;;;;;;9.27;38.90;100590.75;5053501;28;20033;-79
2022/02/23 05:13:02;;;;;;;6.93;1.40;;;;;;;9.21;39.50;100584.59;5050977;28;20100;-80
2022/02/23 05:15:31;;;;;;;2.85;0.70;;;;;;;9.12;39.75;100570.84;5048653;28;20063;-80
2022/02/23 05:17:59;;;;;;;1.27;0.80;;;;;;;9.13;39.63;100610.50;5050360;28;20454;-80
2022/02/23 05:20:28;;;;;;;3.35;0.85;;;;;;;9.11;38.92;100579.53;5049018;28;20036;-80
2022/02/23 05:22:53;;;;;;;1.63;0.80;;;;;;;9.17;39.34;100586.47;5050907;28;20039;-80
2022/02/23 05:25:21;;;;;;;4.43;1.23;;;;;;;9.23;39.04;100584.28;5046723;28;20119;-79
2022/02/23 05:27:49;;;;;;;3.28;1.20;;;;;;;9.22;38.59;100586.25;5050303;28;20025;-79
2022/02/23 05:30:17;;;;;;;1.85;0.75;;;;;;;9.25;38.62;100551.41;5060358;28;20025;-80
2022/02/23 05:32:47;;;;;;;1.52;0.90;;;;;;;9.28;38.42;100562.66;5059699;28;20063;-80
2022/02/23 05:35:17;;;;;;;6.90;2.40;;;;;;;9.22;38.42;100555.72;5058361;28;20091;-79
2022/02/23 05:37:45;;;;;;;4.07;2.10;;;;;;;9.26;38.64;100572.47;5058905;28;20025;-80
2022/02/23 05:40:16;;;;;;;0.70;0.60;;;;;;;9.26;38.13;100578.03;5050946;28;20042;-80
2022/02/23 05:42:48;;;;;;;1.80;0.93;;;;;;;9.22;38.45;100583.47;5048307;28;20116;-80
2022/02/23 05:45:22;;;;;;;1.92;1.10;;;;;;;9.28;37.17;100597.94;5050746;28;20492;-80
2022/02/23 05:47:51;;;;;;;3.53;0.80;;;;;;;9.19;36.87;100584.16;5028170;28;20029;-80
2022/02/23 05:50:16;;;;;;;2.22;1.05;;;;;;;9.24;37.61;100594.22;5024676;28;20030;-80
2022/02/23 05:52:45;;;;;;;1.10;1.00;;;;;;;9.26;37.50;100616.91;5028945;28;20086;-80
2022/02/23 05:55:12;;;;;;;4.43;1.20;;;;;;;9.31;37.25;100611.94;5027542;28;20037;-79
2022/02/23 05:57:43;;;;;;;3.58;1.85;;;;;;;9.52;37.05;100597.16;5028381;28;20106;-80
2022/02/23 06:00:12;;;;;;;1.83;1.10;;;;;;;9.81;37.13;100593.38;5026330;28;20060;-79
2022/02/23 06:02:40;;;;;;;2.28;1.20;;;;;;;9.83;36.95;100596.59;5028670;28;20048;-80
2022/02/23 06:05:08;;;;;;;2.88;1.15;;;;;;;9.72;36.50;100582.34;5028009;28;20033;-79
2022/02/23 06:07:34;;;;;;;4.18;0.93;;;;;;;10.15;36.11;100580.94;5030550;28;20052;-80
2022/02/23 06:10:05;;;;;;;4.57;1.20;;;;;;;10.34;35.69;100595.06;5047797;28;20064;-80
2022/02/23 06:12:30;;;;;;;3.80;1.00;;;;;;;10.09;35.70;100587.91;5033261;28;20080;-79
2022/02/23 06:14:56;;;;;;;2.92;1.08;;;;;;;10.01;35.08;100591.59;5036657;28;20017;-80
2022/02/23 06:17:22;;;;;;;1.30;1.10;;;;;;;10.47;34.79;100571.59;5037656;28;20041;-81
2022/02/23 06:19:52;;;;;;;4.00;1.15;;;;;;;10.83;34.36;100572.63;5035507;28;20034;-80
2022/02/23 06:22:20;;;;;;;3.70;1.40;;;;;;;10.57;35.10;100558.38;5035221;28;20025;-81
2022/02/23 06:24:50;;;;;;;2.55;1.10;;;;;;;11.20;34.25;100559.31;5034934;28;20033;-81
2022/02/23 06:27:18;;;;;;;0.95;0.82;;;;;;;11.49;33.90;100572.00;5034899;28;20121;-80
2022/02/23 06:29:44;;;;;;;4.30;1.52;;;;;;;11.35;32.63;100554.13;5032170;28;20040;-80
2022/02/23 06:32:12;;;;;;;1.83;1.23;;;;;;;11.72;32.17;100551.88;5029794;28;20034;-81
2022/02/23 06:34:38;;;;;;;1.85;1.00;;;;;;;11.73;31.99;100536.75;5030252;28;20060;-81
2022/02/23 06:37:06;;;;;;;2.95;0.98;;;;;;;11.98;32.57;100560.44;5046455;28;20025;-80
2022/02/23 06:39:38;;;;;;;1.10;0.98;;;;;;;12.21;32.67;100546.66;5047860;28;20048;-80
2022/02/23 06:42:06;;;;;;;3.92;0.75;;;;;;;12.24;31.94;100556.25;5030238;28;20096;-80
2022/02/23 06:44:35;;;;;;;2.58;1.17;;;;;;;12.01;31.72;100548.59;5037890;28;20041;-80
2022/02/23 06:47:02;;;;;;;2.70;1.23;;;;;;;12.25;31.19;100563.44;5051435;28;20051;-81
2022/02/23 06:49:30;;;;;;;6.57;1.40;;;;;;;12.58;30.97;100571.34;5056130;28;20040;-80
2022/02/23 06:52:00;;;;;;;4.00;1.23;;;;;;;12.45;30.08;100590.19;5070211;28;20017;-79
2022/02/23 06:54:29;;;;;;;1.35;0.80;;;;;;;12.50;30.46;100587.13;5073995;28;20096;-81
2022/02/23 06:56:57;;;;;;;2.35;0.80;;;;;;;12.63;31.19;100600.97;5057405;28;20033;-81
2022/02/23 06:59:26;;;;;;;5.68;1.20;;;;;;;12.53;31.42;100605.94;5078799;28;20036;-82
2022/02/23 07:01:54;;;;;;;11.75;1.58;;;;;;;12.79;30.71;100622.03;5074951;28;20108;-80
2022/02/23 07:04:19;;;;;;;5.60;1.38;;;;;;;12.82;30.42;100617.69;5058524;28;20033;-79
2022/02/23 07:06:45;;;;;;;3.78;0.95;;;;;;;13.14;30.38;100629.50;5056895;28;20032;-80
2022/02/23 07:09:11;;;;;;;1.73;1.25;;;;;;;13.27;30.14;100619.03;5056922;28;20111;-81
2022/02/23 07:11:37;;;;;;;6.55;1.40;;;;;;;13.27;30.01;100619.03;5055348;28;20029;-81
2022/02/23 07:14:04;;;;;;;1.90;1.13;;;;;;;13.07;29.59;100648.94;5056052;28;20092;-81
2022/02/23 07:16:29;;;;;;;5.57;2.60;;;;;;;13.48;29.92;100657.75;5052987;28;20028;-80
2022/02/23 07:18:55;;;;;;;7.43;2.33;;;;;;;13.50;30.11;100636.63;5049696;28;20025;-79
2022/02/23 07:21:20;;;;;;;4.80;1.48;;;;;;;13.93;29.78;100636.53;5049794;28;20585;-81
2022/02/23 07:23:46;;;;;;;3.42;1.27;;;;;;;13.56;29.55;100645.50;5058149;28;20032;-80
2022/02/23 07:26:14;;;;;;;4.63;3.03;;;;;;;13.66;29.24;100660.84;5055921;28;20020;-80
2022/02/23 07:28:40;;;;;;;5.30;2.20;;;;;;;13.73;29.62;100674.97;5073003;28;20036;-80
2022/02/23 07:31:07;;;;;;;7.00;3.30;;;;;;;13.38;29.79;100678.72;5050086;28;20029;-80
2022/02/23 07:33:35;;;;;;;4.68;2.75;;;;;;;13.62;29.19;100681.16;5050316;28;20036;-80
2022/02/23 07:36:01;;;;;;;3.47;1.73;;;;;;;13.61;29.45;100679.56;5066225;28;20029;-79
2022/02/23 07:38:30;;;;;;;7.43;5.03;;;;;;;13.59;29.89;100687.50;5049438;28;20021;-79
2022/02/23 07:41:02;;;;;;;3.90;2.13;;;;;;;13.31;29.99;100686.94;5048130;28;20028;-79
2022/02/23 07:43:30;;;;;;;9.50;4.18;;;;;;;13.08;29.45;100654.16;5047795;28;20494;-79
2022/02/23 07:45:59;;;;;;;5.40;2.33;;;;;;;12.86;29.71;100688.41;5029264;28;20044;-80
2022/02/23 07:48:25;;;;;;;5.18;3.17;;;;;;;13.40;29.31;100679.16;5028099;28;20029;-79
2022/02/23 07:50:53;;;;;;;12.80;6.47;;;;;;;13.10;28.98;100704.91;5029138;28;20120;-79
2022/02/23 07:53:21;;;;;;;9.85;6.38;;;;;;;13.28;29.46;100693.28;5027648;28;20035;-79
2022/02/23 07:55:49;;;;;;;13.60;8.18;;;;;;;13.38;29.38;100692.69;5028497;28;20505;-79
2022/02/23 07:58:15;;;;;;;2.15;1.75;;;;;;;12.84;29.94;100693.56;5046892;28;20037;-80
2022/02/23 08:00:42;;;;;;;7.65;3.42;;;;;;;13.13;29.42;100691.34;5025551;28;20033;-81
2022/02/23 08:03:11;;;;;;;5.68;4.25;;;;;;;13.23;29.49;100682.41;5025444;28;20035;-79
2022/02/23 08:05:39;;;;;;;8.65;5.28;;;;;;;13.42;28.94;100693.56;5022785;28;20030;-79
2022/02/23 08:08:05;;;;;;;9.70;4.78;;;;;;;13.34;28.80;100701.00;5029210;28;20025;-80
2022/02/23 08:10:31;;;;;;;14.43;5.80;;;;;;;13.30;28.13;100716.88;5034131;28;20030;-79
2022/02/23 08:12:58;;;;;;;16.05;4.82;;;;;;;13.67;28.42;100708.00;5026006;28;20025;-79
2022/02/23 08:20:59;;;;;;;22.10;10.15;;;;;;;13.48;28.67;100713.66;5042000;28;20121;-80
2022/02/23 08:23:29;;;;;;;29.40;12.38;;;;;;;13.31;28.97;100726.06;5024812;28;20385;-79
2022/02/23 08:25:57;;;;;;;42.65;17.98;;;;;;;12.94;29.13;100745.22;5026298;28;20029;-79
2022/02/23 08:28:25;;;;;;;14.40;6.57;;;;;;;13.19;29.15;100745.75;5028662;28;20049;-79
2022/02/23 08:30:54;;;;;;;2.38;0.90;;;;;;;12.99;28.63;100747.72;5029985;28;20022;-80
2022/02/23 08:33:22;;;;;;;2.15;1.15;;;;;;;13.61;27.96;100769.03;5031019;28;20453;-80
2022/02/23 08:35:50;;;;;;;3.92;1.73;;;;;;;13.63;27.84;100749.91;5030084;28;20030;-80
2022/02/23 08:38:24;;;;;;;4.20;1.48;;;;;;;13.72;27.82;100752.44;5026528;28;20063;-79
2022/02/23 08:40:49;;;;;;;2.08;1.20;;;;;;;13.56;27.37;100737.75;5027280;28;20022;-81
2022/02/23 08:43:18;;;;;;;3.05;2.30;;;;;;;13.28;27.65;100730.44;5027628;28;20025;-80
2022/02/23 08:45:46;;;;;;;5.40;1.70;;;;;;;13.79;27.37;100715.41;5044886;28;20059;-80
2022/02/23 08:48:14;;;;;;;4.60;2.97;;;;;;;13.59;27.80;100743.44;5044949;28;20029;-80
2022/02/23 08:50:42;;;;;;;5.05;2.25;;;;;;;13.61;27.36;100724.28;5043700;28;20028;-80
2022/02/23 08:53:10;;;;;;;4.65;1.60;;;;;;;13.85;27.42;100723.16;5061756;28;20029;-81
2022/02/23 08:55:39;;;;;;;3.95;1.83;;;;;;;14.21;27.44;100720.94;5042754;28;20383;-80
2022/02/23 08:58:11;;;;;;;2.35;1.23;;;;;;;14.08;27.16;100725.13;5052277;28;20105;-80
2022/02/23 09:00:39;;;;;;;2.88;2.20;;;;;;;14.37;27.38;100718.00;5042088;28;20039;-80
2022/02/23 09:03:08;;;;;;;2.67;1.40;;;;;;;14.10;27.62;100684.41;5042053;28;20029;-80
2022/02/23 09:05:34;;;;;;;4.72;1.73;;;;;;;14.40;26.76;100734.88;5042424;28;20040;-80
2022/02/23 09:08:04;;;;;;;1.92;1.27;;;;;;;14.40;26.61;100722.88;5043882;28;20096;-80
2022/02/23 09:10:31;;;;;;;3.72;1.92;;;;;;;14.69;26.37;100729.72;5049092;28;20383;-80
2022/02/23 09:12:59;;;;;;;2.20;2.00;;;;;;;14.67;26.51;100724.50;5046610;28;20111;-79
2022/02/23 09:15:28;;;;;;;6.47;2.72;;;;;;;14.31;26.52;100733.50;5049633;28;20037;-77
2022/02/23 09:17:55;;;;;;;1.50;1.40;;;;;;;14.20;27.23;100735.31;5069280;28;20468;-80
2022/02/23 09:20:27;;;;;;;6.80;1.52;;;;;;;14.50;27.07;100735.44;5066042;28;20097;-80
2022/02/23 09:22:54;;;;;;;5.00;2.20;;;;;;;14.84;26.27;100739.16;5049201;28;20080;-81
2022/02/23 09:25:25;;;;;;;2.13;1.77;;;;;;;15.06;26.48;100743.88;5064280;28;20128;-80
2022/02/23 09:27:53;;;;;;;6.95;3.83;;;;;;;16.02;25.75;100741.38;5058466;28;20035;-79
2022/02/23 09:30:22;;;;;;;4.72;2.30;;;;;;;15.88;25.67;100758.09;5042014;28;20509;-80
2022/02/23 09:32:50;;;;;;;7.47;2.67;;;;;;;15.77;25.26;100762.81;5061453;28;20036;-81
2022/02/23 09:35:18;;;;;;;3.90;2.30;;;;;;;15.50;26.15;100771.28;5044896;28;20063;-81
2022/02/23 09:37:47;;;;;;;3.08;1.67;;;;;;;15.48;25.94;100767.22;5063084;28;20112;-81
2022/02/23 09:40:15;;;;;;;2.28;2.05;;;;;;;15.46;26.32;100776.03;5043692;28;20120;-81
2022/02/23 09:42:44;;;;;;;1.95;1.70;;;;;;;14.75;26.29;100763.81;5044245;28;20062;-82
2022/02/23 09:45:12;;;;;;;2.88;1.55;;;;;;;14.57;26.74;100764.38;5059287;28;20052;-81
2022/02/23 09:47:37;;;;;;;4.18;2.10;;;;;;;14.97;26.77;100748.13;5040030;28;20529;-80
2022/02/23 09:50:06;;;;;;;4.38;2.65;;;;;;;15.74;26.21;100764.34;5055928;28;20115;-80
2022/02/23 09:52:35;;;;;;;5.32;2.63;;;;;;;16.28;25.89;100770.50;5056680;28;20103;-80
2022/02/23 09:55:05;;;;;;;3.80;3.08;;;;;;;15.80;26.29;100774.03;5040104;28;20036;-80
2022/02/23 09:57:34;;;;;;;3.33;1.60;;;;;;;15.77;25.99;100782.44;5056749;28;20100;-77
2022/02/23 10:00:00;;;;;;;3.63;1.83;;;;;;;15.81;26.47;100783.25;5056950;28;20025;-79
2022/02/23 10:02:29;;;;;;;2.25;1.80;;;;;;;16.60;25.42;100784.81;5042380;28;20031;-81
2022/02/23 10:05:00;;;;;;;4.68;2.35;;;;;;;15.68;25.50;100780.72;5054731;28;20036;-83
2022/02/23 10:07:28;;;;;;;10.82;6.50;;;;;;;15.79;25.38;100782.84;5049504;28;20024;-81
2022/02/23 10:09:57;;;;;;;19.70;10.70;;;;;;;15.99;25.57;100770.25;5052653;28;20124;-81
2022/02/23 10:12:26;;;;;;;4.47;3.28;;;;;;;15.81;25.91;100770.03;5054974;28;20029;-81
2022/02/23 10:15:18;;;;;;;5.25;2.30;;;;;;;16.14;26.49;100771.16;5057130;28;20035;-81
2022/02/23 10:17:51;;;;;;;3.13;2.08;;;;;;;15.68;25.89;100769.50;5075971;28;20013;-87
2022/02/23 10:20:34;;;;;;;4.47;2.65;;;;;;;15.72;26.13;100761.13;5058393;28;20029;-83
2022/02/23 10:23:20;;;;;;;6.75;2.03;;;;;;;15.67;25.98;100772.69;5050369;28;20051;-83
2022/02/23 10:25:59;;;;;;;3.85;2.03;;;;;;;15.82;26.08;100757.66;5070407;28;20029;-84
2022/02/23 10:28:30;;;;;;;2.63;1.58;;;;;;;16.14;26.47;100755.16;5064008;28;20029;-82
2022/02/23 10:31:03;;;;;;;2.95;1.92;;;;;;;15.65;26.19;100733.78;5051985;28;20048;-80
2022/02/23 10:33:34;;;;;;;1.95;1.52;;;;;;;15.98;26.32;100749.00;5058473;28;20009;-86
2022/02/23 10:36:03;;;;;;;3.83;1.52;;;;;;;16.29;26.09;100738.41;5047203;28;20068;-76
2022/02/23 10:38:45;;;;;;;2.60;1.55;;;;;;;16.18;25.99;100727.91;5035852;28;20032;-74
2022/02/23 10:41:42;;;;;;;2.08;1.33;;;;;;;16.52;26.32;100747.44;5036964;28;20032;-78
2022/02/23 10:44:09;;;;;;;4.60;1.98;;;;;;;16.30;26.23;100768.09;5042422;28;20045;-81
2022/02/23 10:46:37;;;;;;;2.25;1.40;;;;;;;16.34;26.65;100754.91;5050169;28;20024;-83
2022/02/23 10:49:03;;;;;;;4.95;1.85;;;;;;;16.43;26.22;100766.63;5063159;28;20135;-82
2022/02/23 10:51:40;;;;;;;2.45;1.80;;;;;;;16.11;26.46;100761.53;5046454;28;20028;-77
2022/02/23 10:54:08;;;;;;;5.57;1.95;;;;;;;16.36;26.67;100775.00;5037963;28;20029;-79
2022/02/23 10:56:41;;;;;;;2.88;1.45;;;;;;;16.03;27.10;100764.66;5038910;28;20119;-79
2022/02/23 10:59:10;;;;;;;3.25;2.08;;;;;;;16.22;26.77;100754.00;5038539;28;20025;-77
2022/02/23 11:01:36;;;;;;;3.97;2.35;;;;;;;16.51;27.23;100762.66;5039226;28;20024;-78
2022/02/23 11:04:04;;;;;;;11.85;7.18;;;;;;;16.48;26.65;100760.66;5040081;28;20120;-76
2022/02/23 11:06:30;;;;;;;4.97;3.08;;;;;;;16.43;26.45;100756.19;5059641;28;20057;-77
2022/02/23 11:08:58;;;;;;;5.82;3.28;;;;;;;16.31;26.76;100761.31;5042413;28;20056;-76
2022/02/23 11:11:28;;;;;;;3.17;2.30;;;;;;;16.61;27.04;100753.50;5041481;28;20028;-76
2022/02/23 11:13:58;;;;;;;7.70;4.30;;;;;;;16.35;26.79;100770.56;5038096;28;20380;-75
2022/02/23 11:16:28;;;;;;;5.60;3.35;;;;;;;16.59;27.04;100774.78;5054992;28;20443;-75
2022/02/23 11:18:58;;;;;;;4.35;2.63;;;;;;;16.82;27.05;100785.81;5038528;28;20036;-76
2022/02/23 11:21:25;;;;;;;10.90;5.35;;;;;;;16.79;26.67;100784.59;5038992;28;20039;-76
2022/02/23 11:24:00;;;;;;;1.88;1.65;;;;;;;16.88;26.34;100787.06;5038466;28;20029;-76
2022/02/23 11:26:32;;;;;;;3.22;1.98;;;;;;;17.00;26.60;100783.94;5038488;28;20025;-74
2022/02/23 11:29:02;;;;;;;4.03;2.65;;;;;;;16.86;26.75;100783.84;5037939;28;20032;-76
2022/02/23 11:31:33;;;;;;;4.57;3.08;;;;;;;17.07;26.35;100783.16;5038700;28;20063;-75
2022/02/23 11:34:02;;;;;;;5.97;3.10;;;;;;;16.81;27.05;100782.19;5038917;28;20103;-76
2022/02/23 11:36:42;;;;;;;7.55;2.13;;;;;;;17.21;26.38;100774.81;5042584;28;20380;-75
2022/02/23 11:39:16;;;;;;;6.30;1.75;;;;;;;16.74;26.60;100782.97;5042270;28;20025;-75
2022/02/23 11:41:52;;;;;;;8.70;3.22;;;;;;;16.43;27.08;100783.47;5059088;28;20070;-75
2022/02/23 11:44:26;;;;;;;6.75;4.32;;;;;;;16.06;27.55;100775.91;5052858;28;20053;-77